createdAt,value
2022-10-05T00:00:15.694Z,12.04
2022-10-05T00:01:15.668Z,11.90
2022-10-05T00:02:15.655Z,11.93
2022-10-05T00:03:15.660Z,11.93
2022-10-05T00:04:15.792Z,11.94
2022-10-05T00:05:15.708Z,12.00
2022-10-05T00:06:15.619Z,11.98
2022-10-05T00:07:15.644Z,12.03
2022-10-05T00:08:15.625Z,11.90
2022-10-05T00:09:15.564Z,11.84
2022-10-05T00:10:15.595Z,11.84
2022-10-05T00:11:15.569Z,11.82
2022-10-05T00:12:15.565Z,11.85
2022-10-05T00:13:15.509Z,11.74
2022-10-05T00:14:15.733Z,11.41
2022-10-05T00:15:15.668Z,11.28
2022-10-05T00:16:15.566Z,11.20
2022-10-05T00:17:15.667Z,11.06
2022-10-05T00:18:15.500Z,10.94
2022-10-05T00:19:15.472Z,10.94
2022-10-05T00:20:15.698Z,10.76
2022-10-05T00:21:16.408Z,10.84
2022-10-05T00:22:15.451Z,10.62
2022-10-05T00:23:15.441Z,10.60
2022-10-05T00:24:15.495Z,10.65
2022-10-05T00:25:15.458Z,10.57
2022-10-05T00:26:15.428Z,10.62
2022-10-05T00:27:15.396Z,10.58
2022-10-05T00:28:15.511Z,10.63
2022-10-05T00:29:15.341Z,10.52
2022-10-05T00:30:15.347Z,10.46
2022-10-05T00:31:15.718Z,10.44
2022-10-05T00:32:15.392Z,10.57
2022-10-05T00:33:15.315Z,10.66
2022-10-05T00:34:15.349Z,10.73
2022-10-05T00:35:15.411Z,10.75
2022-10-05T00:36:15.362Z,10.75
2022-10-05T00:37:15.372Z,10.83
2022-10-05T00:38:15.284Z,10.88
2022-10-05T00:39:15.273Z,10.88
2022-10-05T00:40:15.248Z,11.01
2022-10-05T00:41:15.202Z,11.03
2022-10-05T00:42:15.426Z,11.13
2022-10-05T00:43:16.796Z,11.13
2022-10-05T00:44:16.801Z,11.06
2022-10-05T00:45:16.280Z,11.16
2022-10-05T00:46:16.446Z,11.11
2022-10-05T00:47:15.533Z,11.06
2022-10-05T00:48:15.301Z,11.08
2022-10-05T00:49:15.355Z,11.16
2022-10-05T00:50:15.272Z,11.13
2022-10-05T00:51:15.289Z,11.12
2022-10-05T00:52:15.292Z,11.23
2022-10-05T00:53:15.345Z,11.16
2022-10-05T00:54:18.309Z,11.28
2022-10-05T00:55:15.763Z,11.16
2022-10-05T00:56:15.327Z,11.19
2022-10-05T00:57:15.208Z,11.30
2022-10-05T00:58:19.461Z,11.23
2022-10-05T00:59:15.192Z,11.28
2022-10-05T01:00:15.130Z,11.20
2022-10-05T01:01:15.330Z,11.26
2022-10-05T01:02:16.461Z,11.20
2022-10-05T01:03:16.389Z,11.27
2022-10-05T01:04:15.126Z,11.33
2022-10-05T01:05:15.164Z,11.26
2022-10-05T01:06:15.173Z,11.21
2022-10-05T01:07:15.000Z,11.26
2022-10-05T01:08:15.170Z,11.26
2022-10-05T01:09:15.281Z,11.26
2022-10-05T01:10:14.989Z,11.38
2022-10-05T01:11:15.162Z,11.41
2022-10-05T01:12:15.311Z,11.31
2022-10-05T01:13:15.074Z,11.36
2022-10-05T01:14:14.972Z,11.36
2022-10-05T01:15:15.117Z,11.35
2022-10-05T01:16:15.083Z,11.20
2022-10-05T01:17:14.897Z,11.21
2022-10-05T01:18:14.946Z,11.09
2022-10-05T01:19:15.645Z,10.94
2022-10-05T01:20:15.151Z,11.05
2022-10-05T01:21:15.249Z,10.93
2022-10-05T01:22:14.942Z,10.94
2022-10-05T01:23:16.219Z,10.90
2022-10-05T01:24:15.200Z,10.72
2022-10-05T01:25:15.086Z,10.68
2022-10-05T01:26:14.897Z,10.55
2022-10-05T01:27:15.498Z,10.47
2022-10-05T01:28:15.181Z,10.14
2022-10-05T01:29:15.350Z,10.13
2022-10-05T01:30:14.979Z,10.02
2022-10-05T01:31:14.897Z,10.02
2022-10-05T01:32:16.170Z,10.06
2022-10-05T01:33:14.961Z,10.14
2022-10-05T01:34:14.882Z,10.14
2022-10-05T01:35:16.235Z,10.11
2022-10-05T01:36:15.099Z,10.06
2022-10-05T01:37:14.794Z,9.93
2022-10-05T01:38:14.950Z,9.95
2022-10-05T01:39:14.829Z,10.01
2022-10-05T01:40:14.959Z,10.04
2022-10-05T01:41:14.788Z,9.91
2022-10-05T01:42:15.178Z,9.95
2022-10-05T01:43:14.914Z,9.88
2022-10-05T01:44:14.935Z,9.88
2022-10-05T01:45:15.055Z,9.96
2022-10-05T01:46:15.115Z,10.01
2022-10-05T01:47:15.110Z,9.95
2022-10-05T01:48:14.897Z,9.98
2022-10-05T01:49:15.191Z,10.07
2022-10-05T01:50:15.024Z,10.11
2022-10-05T01:51:15.437Z,10.13
2022-10-05T01:52:15.298Z,10.17
2022-10-05T01:53:14.801Z,10.14
2022-10-05T01:54:15.374Z,10.18
2022-10-05T01:56:35.469Z,10.18
2022-10-05T01:56:37.620Z,10.25
2022-10-05T01:57:37.341Z,10.29
2022-10-05T01:58:37.356Z,10.39
2022-10-05T01:59:37.782Z,10.39
2022-10-05T02:00:38.674Z,10.44
2022-10-05T02:01:37.448Z,10.35
2022-10-05T02:02:37.508Z,10.34
2022-10-05T02:03:37.875Z,10.42
2022-10-05T02:05:00.804Z,10.31
2022-10-05T02:05:41.132Z,10.31
2022-10-05T02:06:37.569Z,10.29
2022-10-05T02:08:57.410Z,10.28
2022-10-05T02:08:59.504Z,10.20
2022-10-05T02:09:59.521Z,10.17
2022-10-05T02:10:59.749Z,10.16
2022-10-05T02:14:54.965Z,10.25
2022-10-05T02:15:52.882Z,10.35
2022-10-05T02:16:52.515Z,10.46
2022-10-05T02:17:52.911Z,10.44
2022-10-05T02:18:52.556Z,10.42
2022-10-05T02:19:52.507Z,10.49
2022-10-05T02:20:52.654Z,10.54
2022-10-05T02:21:53.000Z,10.57
2022-10-05T02:22:53.121Z,10.52
2022-10-05T02:23:52.852Z,10.63
2022-10-05T02:24:53.291Z,10.62
2022-10-05T02:25:52.796Z,10.68
2022-10-05T02:26:53.956Z,10.69
2022-10-05T02:27:53.200Z,10.66
2022-10-05T02:28:52.786Z,10.65
2022-10-05T02:29:52.404Z,10.66
2022-10-05T02:30:52.944Z,10.66
2022-10-05T02:31:52.400Z,10.58
2022-10-05T02:32:52.748Z,10.66
2022-10-05T02:33:52.542Z,10.62
2022-10-05T02:34:52.418Z,10.72
2022-10-05T02:35:52.609Z,10.68
2022-10-05T02:36:52.542Z,10.68
2022-10-05T02:37:52.557Z,10.78
2022-10-05T02:38:53.418Z,10.75
2022-10-05T02:39:52.576Z,10.81
2022-10-05T02:40:52.538Z,10.91
2022-10-05T02:41:52.190Z,10.93
2022-10-05T02:42:52.935Z,10.80
2022-10-05T02:43:52.230Z,10.84
2022-10-05T02:44:52.845Z,10.90
2022-10-05T02:47:12.772Z,10.90
2022-10-05T02:47:14.566Z,10.90
2022-10-05T02:48:14.717Z,10.88
2022-10-05T02:49:15.120Z,10.73
2022-10-05T02:50:14.559Z,10.62
2022-10-05T02:51:14.610Z,10.55
2022-10-05T02:52:14.698Z,10.43
2022-10-05T02:53:14.802Z,10.42
2022-10-05T02:54:14.651Z,10.38
2022-10-05T02:55:14.526Z,10.42
2022-10-05T02:56:14.665Z,10.42
2022-10-05T02:57:14.690Z,10.47
2022-10-05T02:58:14.506Z,10.14
2022-10-05T02:59:14.506Z,9.81
2022-10-05T03:00:14.226Z,9.34
2022-10-05T03:01:14.656Z,9.20
2022-10-05T03:02:14.297Z,9.12
2022-10-05T03:03:14.203Z,9.01
2022-10-05T03:04:14.221Z,8.85
2022-10-05T03:05:14.135Z,8.78
2022-10-05T03:06:14.310Z,8.68
2022-10-05T03:07:14.216Z,8.57
2022-10-05T03:08:14.175Z,8.67
2022-10-05T03:09:14.462Z,8.61
2022-10-05T03:10:14.242Z,8.50
2022-10-05T03:11:14.640Z,8.54
2022-10-05T03:12:14.410Z,8.52
2022-10-05T03:13:14.162Z,8.34
2022-10-05T03:14:14.035Z,8.45
2022-10-05T03:15:14.053Z,8.43
2022-10-05T03:16:16.741Z,8.36
2022-10-05T03:17:14.267Z,8.39
2022-10-05T03:18:14.291Z,8.46
2022-10-05T03:19:14.599Z,8.50
2022-10-05T03:20:14.575Z,8.63
2022-10-05T03:21:14.350Z,8.67
2022-10-05T03:22:14.241Z,8.67
2022-10-05T03:23:14.279Z,8.73
2022-10-05T03:24:14.230Z,8.83
2022-10-05T03:25:14.171Z,8.86
2022-10-05T03:26:14.373Z,8.97
2022-10-05T03:27:14.619Z,9.00
2022-10-05T03:28:14.580Z,8.96
2022-10-05T03:29:14.242Z,9.03
2022-10-05T03:30:14.166Z,9.08
2022-10-05T03:31:14.130Z,9.03
2022-10-05T03:32:14.077Z,8.93
2022-10-05T03:33:14.483Z,8.76
2022-10-05T03:34:14.070Z,8.60
2022-10-05T03:35:14.207Z,8.54
2022-10-05T03:36:14.247Z,8.60
2022-10-05T03:37:14.216Z,8.54
2022-10-05T03:40:15.456Z,8.55
2022-10-05T03:40:17.366Z,8.46
2022-10-05T03:41:17.342Z,8.46
2022-10-05T03:42:17.463Z,8.47
2022-10-05T03:43:17.582Z,8.61
2022-10-05T03:44:18.512Z,8.63
2022-10-05T03:45:17.471Z,8.68
2022-10-05T03:46:17.252Z,8.71
2022-10-05T03:47:17.248Z,8.82
2022-10-05T03:48:17.189Z,8.93
2022-10-05T03:49:16.989Z,8.91
2022-10-05T03:50:17.496Z,9.00
2022-10-05T03:51:17.086Z,8.86
2022-10-05T03:52:18.457Z,8.88
2022-10-05T03:53:17.183Z,8.78
2022-10-05T03:54:17.132Z,8.61
2022-10-05T03:55:17.337Z,8.64
2022-10-05T03:57:37.050Z,8.83
2022-10-05T03:57:39.486Z,9.01
2022-10-05T03:58:38.977Z,8.98
2022-10-05T03:59:38.849Z,8.96
2022-10-05T04:00:39.081Z,8.98
2022-10-05T04:01:38.962Z,9.00
2022-10-05T04:02:38.986Z,9.00
2022-10-05T04:03:38.941Z,9.10
2022-10-05T04:04:38.681Z,9.17
2022-10-05T04:05:39.133Z,9.15
2022-10-05T04:06:39.881Z,9.12
2022-10-05T04:07:39.231Z,9.20
2022-10-05T04:08:38.805Z,9.16
2022-10-05T04:09:39.080Z,9.12
2022-10-05T04:11:58.399Z,9.08
2022-10-05T04:12:00.438Z,9.10
2022-10-05T04:13:00.922Z,9.06
2022-10-05T04:14:01.006Z,9.20
2022-10-05T04:15:00.659Z,9.16
2022-10-05T04:16:00.560Z,9.20
2022-10-05T04:17:00.449Z,9.19
2022-10-05T04:18:00.355Z,9.17
2022-10-05T04:19:00.626Z,9.24
2022-10-05T04:21:23.696Z,9.19
2022-10-05T04:22:46.566Z,9.10
2022-10-05T04:22:49.408Z,9.15
2022-10-05T04:23:48.774Z,9.08
2022-10-05T04:24:48.874Z,9.13
2022-10-05T04:25:48.466Z,9.17
2022-10-05T04:26:49.602Z,9.04
2022-10-05T04:27:48.294Z,9.08
2022-10-05T04:28:48.299Z,9.04
2022-10-05T04:29:48.855Z,9.10
2022-10-05T04:30:48.415Z,9.30
2022-10-05T04:31:49.873Z,9.34
2022-10-05T04:32:48.190Z,9.42
2022-10-05T04:33:48.382Z,9.40
2022-10-05T04:34:48.358Z,9.44
2022-10-05T04:35:48.307Z,9.42
2022-10-05T04:36:48.621Z,9.42
2022-10-05T04:37:48.143Z,9.49
2022-10-05T04:38:48.560Z,9.55
2022-10-05T04:39:48.162Z,9.58
2022-10-05T04:40:48.222Z,9.68
2022-10-05T04:41:48.224Z,9.67
2022-10-05T04:42:48.252Z,9.62
2022-10-05T04:43:48.458Z,9.58
2022-10-05T04:44:48.539Z,9.65
2022-10-05T04:45:48.024Z,9.70
2022-10-05T04:46:48.469Z,9.75
2022-10-05T04:47:48.137Z,9.80
2022-10-05T04:48:48.310Z,9.73
2022-10-05T04:49:48.324Z,9.67
2022-10-05T04:50:48.028Z,9.75
2022-10-05T04:51:51.189Z,9.74
2022-10-05T04:52:49.323Z,9.77
2022-10-05T04:53:48.051Z,9.71
2022-10-05T04:54:48.097Z,9.80
2022-10-05T04:55:48.095Z,9.93
2022-10-05T04:56:48.020Z,9.95
2022-10-05T05:00:02.575Z,9.88
2022-10-05T05:00:05.769Z,10.04
2022-10-05T05:01:07.382Z,9.99
2022-10-05T05:02:05.467Z,10.02
2022-10-05T05:03:05.026Z,10.16
2022-10-05T05:04:05.115Z,10.16
2022-10-05T05:05:06.169Z,10.13
2022-10-05T05:06:16.920Z,10.17
2022-10-05T05:07:07.072Z,10.17
2022-10-05T05:10:59.936Z,10.22
2022-10-05T05:12:01.593Z,10.22
2022-10-05T05:13:00.020Z,10.22
2022-10-05T05:13:59.903Z,10.18
2022-10-05T05:15:00.331Z,10.25
2022-10-05T05:15:59.873Z,10.29
2022-10-05T05:16:59.842Z,10.28
2022-10-05T05:17:59.907Z,10.34
2022-10-05T05:19:00.578Z,10.28
2022-10-05T05:19:59.886Z,10.31
2022-10-05T05:20:59.617Z,10.32
2022-10-05T05:21:59.785Z,10.25
2022-10-05T05:23:52.705Z,10.25
2022-10-05T05:25:47.589Z,10.22
2022-10-05T05:25:51.897Z,10.24
2022-10-05T05:26:51.182Z,10.18
2022-10-05T05:27:50.117Z,10.17
2022-10-05T05:30:14.331Z,10.24
2022-10-05T05:30:16.198Z,10.26
2022-10-05T05:31:16.202Z,10.18
2022-10-05T05:32:16.017Z,10.25
2022-10-05T05:33:16.364Z,10.29
2022-10-05T05:34:16.029Z,10.28
2022-10-05T05:35:16.105Z,10.25
2022-10-05T05:36:20.709Z,10.29
2022-10-05T05:37:18.973Z,10.26
2022-10-05T05:38:16.638Z,10.34
2022-10-05T05:39:15.934Z,10.24
2022-10-05T05:41:35.584Z,10.29
2022-10-05T05:41:37.410Z,10.32
2022-10-05T05:42:37.715Z,10.28
2022-10-05T05:43:37.398Z,10.32
2022-10-05T05:46:01.365Z,10.34
2022-10-05T05:46:05.160Z,10.26
2022-10-05T05:47:04.842Z,10.28
2022-10-05T05:48:04.990Z,10.35
2022-10-05T05:50:35.467Z,10.20
2022-10-05T05:51:36.010Z,10.32
2022-10-05T05:52:35.469Z,10.24
2022-10-05T05:53:36.256Z,10.24
2022-10-05T05:54:35.247Z,10.34
2022-10-05T05:57:01.522Z,10.24
2022-10-05T05:57:03.820Z,10.39
2022-10-05T05:58:03.240Z,10.32
2022-10-05T06:02:24.150Z,10.36
2022-10-05T06:02:51.398Z,10.44
2022-10-05T06:03:52.717Z,10.47
2022-10-05T06:07:46.289Z,10.49
2022-10-05T06:08:46.579Z,10.60
2022-10-05T06:09:46.418Z,10.54
2022-10-05T06:16:40.201Z,10.62
2022-10-05T06:19:40.167Z,10.52
2022-10-05T06:19:45.477Z,10.66
2022-10-05T06:20:43.131Z,10.69
2022-10-05T06:24:50.816Z,10.57
2022-10-05T06:27:01.769Z,10.68
2022-10-05T06:27:03.505Z,10.65
2022-10-05T06:28:18.146Z,10.70
2022-10-05T06:29:03.451Z,10.72
2022-10-05T06:31:29.658Z,10.70
2022-10-05T06:34:21.624Z,10.78
2022-10-05T06:35:04.532Z,10.75
2022-10-05T06:36:03.336Z,10.68
2022-10-05T06:37:17.209Z,10.73
2022-10-05T06:45:24.249Z,10.76
2022-10-05T06:47:43.635Z,10.86
2022-10-05T06:50:44.545Z,10.94
2022-10-05T06:51:40.291Z,10.93
2022-10-05T06:54:04.751Z,10.95
2022-10-05T06:54:06.594Z,11.01
2022-10-05T06:55:15.833Z,11.08
2022-10-05T06:56:08.218Z,11.09
2022-10-05T06:58:32.904Z,11.05
2022-10-05T07:05:23.912Z,11.38
2022-10-05T07:06:52.269Z,11.36
2022-10-05T07:06:54.739Z,11.36
2022-10-05T07:07:55.354Z,11.42
2022-10-05T07:11:50.135Z,11.45
2022-10-05T07:11:58.470Z,11.42
2022-10-05T07:15:28.934Z,11.39
2022-10-05T07:17:02.477Z,11.59
2022-10-05T07:21:19.846Z,11.67
2022-10-05T07:21:55.445Z,11.74
2022-10-05T07:27:18.772Z,11.82
2022-10-05T07:28:44.970Z,11.78
2022-10-05T07:28:46.558Z,11.78
2022-10-05T07:29:47.468Z,11.78
2022-10-05T07:35:35.463Z,11.96
2022-10-05T07:35:37.213Z,11.82
2022-10-05T07:39:55.280Z,11.87
2022-10-05T07:44:55.921Z,11.96
2022-10-05T07:44:58.131Z,11.96
2022-10-05T07:45:58.505Z,12.00
2022-10-05T07:51:35.677Z,12.07
2022-10-05T07:51:37.574Z,12.00
2022-10-05T07:54:03.420Z,12.01
2022-10-05T07:54:05.516Z,12.08
2022-10-05T07:59:24.205Z,12.03
2022-10-05T08:05:40.996Z,12.05
2022-10-05T08:05:47.828Z,12.07
2022-10-05T08:09:52.589Z,12.12
2022-10-05T08:16:35.649Z,12.41
2022-10-05T08:18:59.141Z,12.49
2022-10-05T08:19:00.985Z,12.56
2022-10-05T08:20:33.402Z,12.48
2022-10-05T08:23:26.406Z,12.52
2022-10-05T08:26:33.277Z,12.61
2022-10-05T08:28:55.658Z,12.70
2022-10-05T08:28:57.439Z,12.67
2022-10-05T08:31:21.485Z,12.76
2022-10-05T08:31:43.002Z,12.80
2022-10-05T08:37:28.855Z,12.87
2022-10-05T08:39:05.026Z,12.98
2022-10-05T08:41:35.206Z,12.84
2022-10-05T08:41:39.603Z,12.87
2022-10-05T08:45:32.830Z,12.95
2022-10-05T08:46:32.940Z,12.96
2022-10-05T08:48:51.478Z,12.91
2022-10-05T08:48:56.282Z,13.01
2022-10-05T08:50:01.564Z,12.94
2022-10-05T08:50:56.175Z,12.92
2022-10-05T08:51:57.090Z,13.01
2022-10-05T08:54:32.584Z,12.99
2022-10-05T08:54:35.024Z,13.14
2022-10-05T08:57:42.603Z,13.21
2022-10-05T08:57:48.540Z,13.36
2022-10-05T08:58:48.008Z,13.53
2022-10-05T08:59:48.009Z,13.44
2022-10-05T09:00:47.832Z,13.63
2022-10-05T09:03:42.308Z,13.71
2022-10-05T09:03:48.951Z,13.87
2022-10-05T09:04:48.768Z,13.93
2022-10-05T09:05:48.976Z,13.88
2022-10-05T09:06:49.416Z,14.01
2022-10-05T09:07:48.748Z,13.90
2022-10-05T09:08:48.792Z,13.88
2022-10-05T09:11:14.945Z,14.09
2022-10-05T09:11:16.461Z,14.20
2022-10-05T09:12:16.512Z,14.26
2022-10-05T09:13:16.557Z,14.29
2022-10-05T09:14:20.589Z,14.24
2022-10-05T09:15:26.250Z,14.23
2022-10-05T09:16:23.222Z,14.23
2022-10-05T09:17:16.572Z,14.30
2022-10-05T09:18:16.893Z,14.34
2022-10-05T09:19:16.376Z,14.31
2022-10-05T09:20:16.383Z,14.21
2022-10-05T09:21:16.420Z,14.12
2022-10-05T09:22:16.392Z,14.20
2022-10-05T09:23:16.438Z,14.27
2022-10-05T09:24:17.208Z,14.13
2022-10-05T09:25:37.905Z,14.17
2022-10-05T09:26:16.398Z,14.16
2022-10-05T09:27:16.321Z,14.31
2022-10-05T09:28:16.370Z,14.31
2022-10-05T09:29:16.343Z,14.24
2022-10-05T09:30:16.253Z,14.26
2022-10-05T09:31:16.329Z,14.29
2022-10-05T09:32:16.718Z,14.27
2022-10-05T09:33:16.529Z,14.27
2022-10-05T09:34:17.341Z,14.31
2022-10-05T09:35:16.217Z,14.26
2022-10-05T09:36:16.268Z,14.26
2022-10-05T09:37:16.352Z,14.27
2022-10-05T09:38:16.249Z,14.35
2022-10-05T09:39:16.325Z,14.36
2022-10-05T09:40:17.518Z,14.29
2022-10-05T09:41:16.156Z,14.41
2022-10-05T09:42:16.193Z,14.27
2022-10-05T09:43:16.186Z,14.38
2022-10-05T09:44:16.125Z,14.44
2022-10-05T09:45:21.046Z,14.34
2022-10-05T09:46:19.013Z,14.48
2022-10-05T09:47:16.447Z,14.46
2022-10-05T09:48:16.229Z,14.34
2022-10-05T09:49:16.126Z,14.41
2022-10-05T09:50:16.045Z,14.48
2022-10-05T09:51:16.097Z,14.48
2022-10-05T09:52:18.959Z,14.44
2022-10-05T09:53:16.079Z,14.49
2022-10-05T09:54:16.016Z,14.54
2022-10-05T09:55:16.346Z,14.54
2022-10-05T09:56:16.080Z,14.66
2022-10-05T09:57:16.225Z,14.67
2022-10-05T09:58:15.965Z,14.67
2022-10-05T09:59:16.007Z,14.75
2022-10-05T10:00:15.979Z,14.87
2022-10-05T10:01:32.613Z,14.67
2022-10-05T10:02:17.991Z,14.75
2022-10-05T10:03:16.036Z,14.79
2022-10-05T10:04:15.952Z,14.83
2022-10-05T10:05:15.910Z,14.85
2022-10-05T10:06:15.875Z,14.75
2022-10-05T10:07:15.932Z,14.71
2022-10-05T10:08:15.980Z,14.87
2022-10-05T10:09:15.847Z,14.82
2022-10-05T10:10:15.830Z,14.85
2022-10-05T10:11:16.064Z,14.86
2022-10-05T10:12:21.135Z,14.83
2022-10-05T10:13:15.840Z,14.91
2022-10-05T10:14:15.832Z,14.86
2022-10-05T10:15:15.763Z,14.78
2022-10-05T10:16:15.867Z,14.86
2022-10-05T10:17:15.737Z,14.71
2022-10-05T10:18:15.753Z,14.83
2022-10-05T10:19:15.803Z,14.95
2022-10-05T10:20:15.696Z,15.01
2022-10-05T10:21:15.939Z,14.97
2022-10-05T10:22:15.755Z,15.07
2022-10-05T10:23:15.698Z,15.09
2022-10-05T10:24:15.796Z,15.11
2022-10-05T10:25:15.631Z,15.15
2022-10-05T10:26:15.726Z,15.09
2022-10-05T10:27:15.689Z,15.05
2022-10-05T10:28:15.695Z,15.11
2022-10-05T10:29:15.686Z,15.13
2022-10-05T10:30:15.697Z,15.12
2022-10-05T10:31:15.742Z,15.11
2022-10-05T10:32:15.641Z,15.12
2022-10-05T10:33:15.635Z,15.15
2022-10-05T10:34:15.752Z,15.04
2022-10-05T10:35:15.704Z,15.12
2022-10-05T10:36:17.293Z,15.22
2022-10-05T10:37:15.592Z,15.16
2022-10-05T10:38:15.564Z,15.19
2022-10-05T10:39:15.560Z,15.20
2022-10-05T10:40:15.860Z,15.20
2022-10-05T10:41:15.491Z,15.20
2022-10-05T10:42:16.204Z,15.27
2022-10-05T10:43:15.557Z,15.28
2022-10-05T10:44:15.564Z,15.27
2022-10-05T10:45:15.789Z,15.34
2022-10-05T10:46:15.474Z,15.28
2022-10-05T10:47:15.440Z,15.25
2022-10-05T10:48:15.421Z,15.31
2022-10-05T10:49:15.470Z,15.27
2022-10-05T10:50:15.465Z,15.25
2022-10-05T10:51:15.385Z,15.34
2022-10-05T10:52:15.475Z,15.38
2022-10-05T10:53:15.424Z,15.40
2022-10-05T10:54:15.428Z,15.33
2022-10-05T10:55:15.451Z,15.34
2022-10-05T10:56:15.463Z,15.41
2022-10-05T10:57:15.401Z,15.37
2022-10-05T10:58:16.353Z,15.40
2022-10-05T10:59:16.318Z,15.40
2022-10-05T11:00:15.362Z,15.43
2022-10-05T11:01:15.400Z,15.44
2022-10-05T11:02:15.408Z,15.37
2022-10-05T11:03:15.455Z,15.48
2022-10-05T11:04:15.325Z,15.48
2022-10-05T11:05:15.218Z,15.49
2022-10-05T11:06:15.421Z,15.49
2022-10-05T11:07:15.353Z,15.60
2022-10-05T11:08:16.207Z,15.64
2022-10-05T11:09:15.308Z,15.55
2022-10-05T11:10:15.281Z,15.55
2022-10-05T11:11:15.253Z,15.59
2022-10-05T11:12:15.162Z,15.70
2022-10-05T11:13:15.106Z,15.71
2022-10-05T11:14:15.135Z,15.60
2022-10-05T11:15:15.077Z,15.56
2022-10-05T11:16:18.709Z,15.73
2022-10-05T11:17:15.194Z,15.67
2022-10-05T11:18:15.778Z,15.73
2022-10-05T11:19:15.108Z,15.66
2022-10-05T11:20:15.153Z,15.71
2022-10-05T11:21:15.051Z,15.70
2022-10-05T11:22:15.034Z,15.66
2022-10-05T11:23:15.831Z,15.68
2022-10-05T11:24:15.002Z,15.70
2022-10-05T11:25:15.019Z,15.68
2022-10-05T11:26:14.996Z,15.77
2022-10-05T11:27:15.029Z,15.74
2022-10-05T11:28:15.078Z,15.77
2022-10-05T11:29:15.948Z,15.76
2022-10-05T11:30:15.058Z,15.73
2022-10-05T11:31:14.975Z,15.74
2022-10-05T11:32:15.039Z,15.86
2022-10-05T11:33:14.925Z,15.80
2022-10-05T11:34:14.921Z,15.80
2022-10-05T11:35:15.291Z,15.77
2022-10-05T11:36:14.927Z,15.78
2022-10-05T11:37:14.909Z,15.86
2022-10-05T11:38:14.984Z,15.86
2022-10-05T11:39:14.932Z,15.88
2022-10-05T11:40:14.847Z,15.93
2022-10-05T11:41:14.868Z,15.96
2022-10-05T11:42:14.919Z,15.99
2022-10-05T11:43:14.848Z,16.01
2022-10-05T11:44:14.772Z,15.98
2022-10-05T11:45:14.808Z,16.11
2022-10-05T11:46:14.766Z,16.01
2022-10-05T11:47:14.991Z,15.99
2022-10-05T11:48:15.036Z,16.07
2022-10-05T11:49:14.772Z,16.23
2022-10-05T11:50:14.760Z,16.22
2022-10-05T11:51:14.776Z,16.14
2022-10-05T11:52:14.775Z,16.26
2022-10-05T11:53:14.678Z,16.14
2022-10-05T11:54:14.745Z,16.17
2022-10-05T11:55:14.715Z,16.26
2022-10-05T11:56:14.769Z,16.25
2022-10-05T11:57:14.810Z,16.23
2022-10-05T11:58:14.650Z,16.23
2022-10-05T11:59:14.643Z,16.26
2022-10-05T12:00:15.057Z,16.23
2022-10-05T12:01:14.592Z,16.18
2022-10-05T12:02:14.580Z,16.29
2022-10-05T12:03:14.700Z,16.23
2022-10-05T12:04:14.655Z,16.25
2022-10-05T12:05:14.517Z,16.27
2022-10-05T12:06:14.586Z,16.42
2022-10-05T12:07:14.904Z,16.36
2022-10-05T12:08:14.469Z,16.36
2022-10-05T12:09:14.503Z,16.42
2022-10-05T12:10:14.528Z,16.47
2022-10-05T12:11:14.932Z,16.70
2022-10-05T12:12:14.495Z,16.60
2022-10-05T12:13:14.505Z,16.77
2022-10-05T12:14:14.499Z,16.77
2022-10-05T12:15:14.523Z,16.66
2022-10-05T12:16:14.518Z,16.66
2022-10-05T12:17:14.407Z,16.87
2022-10-05T12:18:14.450Z,17.07
2022-10-05T12:19:14.467Z,17.02
2022-10-05T12:20:14.374Z,17.17
2022-10-05T12:21:15.476Z,17.28
2022-10-05T12:22:14.348Z,17.35
2022-10-05T12:23:14.337Z,17.38
2022-10-05T12:24:14.331Z,17.40
2022-10-05T12:25:14.325Z,17.33
2022-10-05T12:26:14.410Z,17.33
2022-10-05T12:27:14.318Z,17.27
2022-10-05T12:28:14.322Z,17.20
2022-10-05T12:29:14.291Z,17.28
2022-10-05T12:30:14.931Z,17.51
2022-10-05T12:31:14.290Z,17.57
2022-10-05T12:32:14.270Z,17.79
2022-10-05T12:33:14.229Z,17.84
2022-10-05T12:34:14.231Z,18.05
2022-10-05T12:35:29.683Z,18.20
2022-10-05T12:36:15.209Z,18.07
2022-10-05T12:37:14.288Z,17.87
2022-10-05T12:38:14.219Z,17.76
2022-10-05T12:39:14.174Z,17.95
2022-10-05T12:40:14.159Z,18.02
2022-10-05T12:41:14.154Z,17.99
2022-10-05T12:42:14.154Z,17.96
2022-10-05T12:43:14.119Z,17.86
2022-10-05T12:44:14.162Z,17.63
2022-10-05T12:45:14.287Z,17.60
2022-10-05T12:46:14.124Z,17.46
2022-10-05T12:47:14.246Z,17.54
2022-10-05T12:48:14.307Z,17.35
2022-10-05T12:49:14.038Z,17.54
2022-10-05T12:50:14.121Z,17.76
2022-10-05T12:51:15.011Z,17.86
2022-10-05T12:52:14.016Z,17.83
2022-10-05T12:53:13.987Z,17.62
2022-10-05T12:54:15.016Z,17.60
2022-10-05T12:55:13.964Z,17.47
2022-10-05T12:56:14.498Z,17.63
2022-10-05T12:57:14.051Z,17.42
2022-10-05T12:58:13.936Z,17.66
2022-10-05T12:59:13.944Z,17.70
2022-10-05T13:00:15.220Z,17.87
2022-10-05T13:01:14.078Z,17.96
2022-10-05T13:02:13.939Z,18.19
2022-10-05T13:03:13.917Z,18.32
2022-10-05T13:04:13.851Z,18.29
2022-10-05T13:05:14.868Z,18.51
2022-10-05T13:06:14.366Z,18.69
2022-10-05T13:07:13.891Z,18.53
2022-10-05T13:08:13.845Z,18.75
2022-10-05T13:09:13.825Z,18.28
2022-10-05T13:10:13.823Z,18.21
2022-10-05T13:11:15.156Z,18.26
2022-10-05T13:12:14.846Z,18.56
2022-10-05T13:13:14.010Z,18.71
2022-10-05T13:14:13.791Z,18.78
2022-10-05T13:15:13.816Z,18.83
2022-10-05T13:16:14.146Z,18.72
2022-10-05T13:17:13.784Z,18.60
2022-10-05T13:18:13.736Z,18.38
2022-10-05T13:19:14.536Z,18.38
2022-10-05T13:20:13.738Z,18.44
2022-10-05T13:21:13.709Z,18.46
2022-10-05T13:22:13.696Z,18.65
2022-10-05T13:23:13.720Z,18.75
2022-10-05T13:24:13.675Z,18.83
2022-10-05T13:25:13.639Z,18.54
2022-10-05T13:26:13.788Z,18.44
2022-10-05T13:27:13.826Z,18.53
2022-10-05T13:28:13.760Z,18.66
2022-10-05T13:29:13.584Z,18.75
2022-10-05T13:30:13.564Z,18.96
2022-10-05T13:31:13.660Z,18.91
2022-10-05T13:32:13.548Z,18.69
2022-10-05T13:33:13.572Z,18.51
2022-10-05T13:34:13.549Z,18.51
2022-10-05T13:35:13.545Z,18.82
2022-10-05T13:36:13.821Z,18.91
2022-10-05T13:37:14.433Z,18.91
2022-10-05T13:38:13.762Z,19.02
2022-10-05T13:39:13.530Z,18.65
2022-10-05T13:40:13.486Z,18.71
2022-10-05T13:41:13.450Z,18.56
2022-10-05T13:42:14.669Z,18.13
2022-10-05T13:43:13.638Z,17.91
2022-10-05T13:44:13.591Z,18.17
2022-10-05T13:45:13.657Z,18.31
2022-10-05T13:46:14.690Z,18.44
2022-10-05T13:47:13.398Z,18.51
2022-10-05T13:48:13.594Z,18.65
2022-10-05T13:49:13.639Z,18.72
2022-10-05T13:50:13.384Z,18.96
2022-10-05T13:51:13.672Z,19.09
2022-10-05T13:52:13.366Z,19.25
2022-10-05T13:53:13.339Z,19.28
2022-10-05T13:54:14.114Z,18.96
2022-10-05T13:55:13.821Z,18.93
2022-10-05T13:56:13.358Z,18.96
2022-10-05T13:57:13.318Z,18.82
2022-10-05T13:58:13.346Z,18.76
2022-10-05T13:59:13.270Z,18.65
2022-10-05T14:00:13.523Z,18.69
2022-10-05T14:01:13.702Z,18.64
2022-10-05T14:02:13.463Z,18.49
2022-10-05T14:03:13.351Z,18.56
2022-10-05T14:04:13.637Z,18.66
2022-10-05T14:05:13.326Z,18.65
2022-10-05T14:06:13.259Z,18.72
2022-10-05T14:07:13.276Z,18.93
2022-10-05T14:08:13.315Z,18.96
2022-10-05T14:09:13.244Z,19.10
2022-10-05T14:10:13.527Z,19.13
2022-10-05T14:11:13.392Z,19.13
2022-10-05T14:12:13.263Z,19.02
2022-10-05T14:13:13.122Z,19.10
2022-10-05T14:14:13.143Z,19.05
2022-10-05T14:15:13.100Z,18.99
2022-10-05T14:16:13.283Z,19.09
2022-10-05T14:17:13.132Z,19.15
2022-10-05T14:18:14.040Z,19.12
2022-10-05T14:19:13.094Z,19.09
2022-10-05T14:20:13.043Z,19.09
2022-10-05T14:21:13.355Z,19.07
2022-10-05T14:22:13.020Z,19.25
2022-10-05T14:23:15.470Z,19.17
2022-10-05T14:24:20.156Z,19.27
2022-10-05T14:25:15.244Z,19.35
2022-10-05T14:26:13.016Z,19.20
2022-10-05T14:27:13.025Z,19.05
2022-10-05T14:28:13.012Z,19.07
2022-10-05T14:29:12.968Z,18.79
2022-10-05T14:30:12.919Z,18.83
2022-10-05T14:31:13.437Z,18.82
2022-10-05T14:32:13.042Z,19.01
2022-10-05T14:33:12.879Z,18.97
2022-10-05T14:34:13.584Z,18.93
2022-10-05T14:35:12.938Z,18.97
2022-10-05T14:36:13.488Z,18.99
2022-10-05T14:37:12.884Z,18.69
2022-10-05T14:38:12.876Z,18.71
2022-10-05T14:39:13.257Z,18.60
2022-10-05T14:40:12.806Z,18.50
2022-10-05T14:41:13.137Z,18.68
2022-10-05T14:42:13.099Z,18.78
2022-10-05T14:43:12.820Z,18.76
2022-10-05T14:44:12.990Z,18.94
2022-10-05T14:45:12.755Z,19.07
2022-10-05T14:46:12.928Z,19.09
2022-10-05T14:47:12.757Z,18.96
2022-10-05T14:48:12.792Z,19.09
2022-10-05T14:49:12.781Z,18.96
2022-10-05T14:50:13.060Z,18.96